Time;durP1;ratioP1;P1;durP2;ratioP2;P2;SDS_P1;SDS_P2;PMS_P1;PMS_P2;Temp;Humidity;BMP_temperature;BMP_pressure;BME280_temperature;BME280_humidity;BME280_pressure;Samples;Min_cycle;Max_cycle;Signal;HPM_P1;HPM_P2
2024/02/22 00:00:53;;;;;;;6.38;2.70;;;;;;;6.39;92.08;97465.97;5022957;28;20014;-83
2024/02/22 00:03:19;;;;;;;5.35;3.40;;;;;;;6.54;92.97;97495.22;5002527;28;20075;-83
2024/02/22 00:05:44;;;;;;;3.63;3.22;;;;;;;6.66;91.62;97487.88;5025450;28;20028;-83
2024/02/22 00:08:10;;;;;;;4.43;3.08;;;;;;;6.59;92.07;97463.44;5026827;28;20033;-83
2024/02/22 00:10:35;;;;;;;3.95;2.95;;;;;;;6.43;93.60;97469.69;5006218;28;20052;-83
2024/02/22 00:13:01;;;;;;;6.20;3.83;;;;;;;6.38;93.40;97451.91;5010629;28;20396;-83
2024/02/22 00:15:26;;;;;;;3.67;3.15;;;;;;;6.51;93.57;97461.28;5023445;28;20060;-83
2024/02/22 00:17:52;;;;;;;5.05;3.60;;;;;;;6.30;93.68;97425.91;5026994;28;20032;-83
2024/02/22 00:20:18;;;;;;;4.60;3.45;;;;;;;6.64;92.81;97458.97;5026338;28;20132;-83
2024/02/22 00:22:46;;;;;;;4.32;3.33;;;;;;;6.49;93.74;97435.03;5030078;28;20021;-84
2024/02/22 00:25:12;;;;;;;9.73;3.35;;;;;;;6.62;93.44;97439.06;5025673;28;20108;-83
2024/02/22 00:27:38;;;;;;;4.35;3.40;;;;;;;6.37;92.71;97405.28;4991032;28;20128;-84
2024/02/22 00:30:05;;;;;;;5.97;3.83;;;;;;;6.59;93.64;97427.16;5012818;28;20543;-84
2024/02/22 00:32:31;;;;;;;5.57;3.47;;;;;;;6.35;93.82;97385.41;5028844;28;20037;-84
2024/02/22 00:34:57;;;;;;;6.25;3.58;;;;;;;6.45;94.20;97398.69;5008831;28;20913;-84
2024/02/22 00:37:23;;;;;;;5.57;3.88;;;;;;;6.52;93.85;97399.25;5028861;28;20025;-83
2024/02/22 00:39:48;;;;;;;8.15;3.65;;;;;;;6.51;94.33;97410.94;5027246;28;20030;-83
2024/02/22 00:42:14;;;;;;;6.43;3.92;;;;;;;6.59;94.02;97399.84;5006139;28;20037;-83
2024/02/22 00:44:39;;;;;;;5.85;3.88;;;;;;;6.54;94.01;97405.09;5024634;28;20464;-83
2024/02/22 00:47:05;;;;;;;3.63;3.30;;;;;;;6.50;94.58;97393.44;5022139;28;20034;-83
2024/02/22 00:49:30;;;;;;;3.80;3.13;;;;;;;6.37;94.68;97378.78;4996351;28;21174;-83
2024/02/22 00:51:55;;;;;;;6.15;3.60;;;;;;;6.52;94.85;97375.41;5028222;28;20033;-82
2024/02/22 00:54:21;;;;;;;2.83;2.63;;;;;;;6.49;95.08;97379.38;5030907;28;20033;-83
2024/02/22 00:56:47;;;;;;;4.57;3.53;;;;;;;6.22;94.67;97328.38;5011445;28;20033;-83
2024/02/22 00:59:13;;;;;;;4.90;3.40;;;;;;;6.23;94.77;97310.59;5026044;28;20409;-84
2024/02/22 01:01:38;;;;;;;7.57;3.17;;;;;;;6.39;94.54;97334.28;5005838;28;20033;-84
2024/02/22 01:04:03;;;;;;;5.28;2.88;;;;;;;6.58;93.87;97350.50;5026733;28;20033;-83
2024/02/22 01:06:30;;;;;;;3.17;2.85;;;;;;;6.53;95.09;97351.28;5028505;28;20032;-83
2024/02/22 01:08:56;;;;;;;4.60;2.65;;;;;;;6.46;95.92;97339.34;5012532;28;20172;-84
2024/02/22 01:11:21;;;;;;;2.83;2.63;;;;;;;6.57;95.50;97338.34;5026339;28;20121;-84
2024/02/22 01:13:48;;;;;;;4.25;3.17;;;;;;;6.41;94.49;97302.22;5027665;28;20034;-84
2024/02/22 01:16:16;;;;;;;3.03;2.50;;;;;;;6.47;95.46;97325.81;5011629;28;20029;-83
2024/02/22 01:18:41;;;;;;;4.55;2.65;;;;;;;6.43;95.38;97308.84;5016542;28;20034;-84
2024/02/22 01:21:07;;;;;;;2.92;2.60;;;;;;;6.27;95.49;97295.81;5006743;28;20030;-84
2024/02/22 01:23:32;;;;;;;2.47;2.25;;;;;;;6.51;95.55;97321.59;4992382;28;20033;-83
2024/02/22 01:25:58;;;;;;;4.80;2.13;;;;;;;6.34;95.28;97275.16;5011042;28;20029;-83
2024/02/22 01:28:24;;;;;;;2.58;2.30;;;;;;;6.38;95.05;97274.38;5031674;28;20025;-84
2024/02/22 01:30:49;;;;;;;2.25;2.05;;;;;;;6.46;95.09;97271.25;5023233;28;20037;-83
2024/02/22 01:33:15;;;;;;;3.88;2.35;;;;;;;6.37;94.68;97251.59;5030678;28;20043;-84
2024/02/22 01:35:41;;;;;;;3.90;2.42;;;;;;;6.56;95.16;97276.56;5027100;28;20444;-84
2024/02/22 01:38:06;;;;;;;3.08;2.20;;;;;;;6.37;94.98;97254.25;5028709;28;20038;-84
2024/02/22 01:40:32;;;;;;;2.05;1.92;;;;;;;6.42;96.05;97274.69;4998147;28;20036;-83
2024/02/22 01:42:57;;;;;;;4.00;2.33;;;;;;;6.38;95.55;97247.06;5011031;28;20049;-84
2024/02/22 01:45:23;;;;;;;4.43;2.33;;;;;;;6.26;95.97;97249.16;4996730;28;20025;-84
2024/02/22 01:47:49;;;;;;;3.42;2.50;;;;;;;6.42;95.85;97258.78;5013901;28;20037;-84
2024/02/22 01:50:16;;;;;;;2.95;2.30;;;;;;;6.52;96.04;97258.78;5010542;28;20036;-84
2024/02/22 01:52:42;;;;;;;2.55;2.22;;;;;;;6.53;95.83;97260.41;5011651;28;20087;-84
2024/02/22 01:55:09;;;;;;;2.13;1.92;;;;;;;6.40;95.91;97229.09;5017775;28;20501;-84
2024/02/22 01:57:36;;;;;;;2.55;2.33;;;;;;;6.59;95.58;97230.19;5028582;28;20018;-83
2024/02/22 02:00:03;;;;;;;2.35;2.10;;;;;;;6.39;95.44;97209.75;5030080;28;20057;-84
2024/02/22 02:02:28;;;;;;;2.50;2.30;;;;;;;6.19;95.59;97177.09;5033672;28;20021;-84
2024/02/22 02:04:54;;;;;;;2.78;2.42;;;;;;;6.43;94.88;97205.50;5028332;28;20397;-83
2024/02/22 02:07:19;;;;;;;2.83;2.50;;;;;;;6.58;95.26;97223.28;5011295;28;20516;-84
2024/02/22 02:09:45;;;;;;;1.92;1.83;;;;;;;6.64;95.93;97227.56;5007200;28;20036;-84
2024/02/22 02:12:11;;;;;;;2.50;2.30;;;;;;;6.55;95.83;97221.94;5005731;28;20037;-84
2024/02/22 02:14:36;;;;;;;3.45;2.20;;;;;;;6.23;96.53;97186.09;5012400;28;20060;-83
2024/02/22 02:17:02;;;;;;;2.72;2.30;;;;;;;6.44;96.27;97201.81;5011179;28;20026;-84
2024/02/22 02:19:29;;;;;;;2.47;1.90;;;;;;;6.46;95.69;97172.41;4997790;28;20052;-85
2024/02/22 02:22:11;;;;;;;2.65;2.08;;;;;;;6.36;95.77;97169.72;5032127;28;20082;-84
2024/02/22 02:24:44;;;;;;;2.42;2.22;;;;;;;6.64;96.55;97201.06;5031815;28;20025;-84
2024/02/22 02:27:10;;;;;;;2.47;2.28;;;;;;;6.52;96.47;97195.19;5028837;28;20056;-84
2024/02/22 02:29:36;;;;;;;2.70;2.10;;;;;;;6.52;96.92;97185.38;5014395;28;20056;-84
2024/02/22 02:32:01;;;;;;;2.00;1.90;;;;;;;6.50;95.85;97162.84;5014356;28;20037;-83
2024/02/22 02:34:26;;;;;;;1.63;1.50;;;;;;;6.61;95.54;97181.16;5030198;28;20065;-83
2024/02/22 02:36:52;;;;;;;2.88;1.75;;;;;;;6.51;96.56;97157.28;5036955;28;20025;-83
2024/02/22 02:39:17;;;;;;;2.50;1.63;;;;;;;6.42;97.11;97160.72;5011323;28;20072;-84
2024/02/22 02:41:43;;;;;;;4.57;2.03;;;;;;;6.53;97.11;97167.63;5031733;28;20037;-84
2024/02/22 02:44:08;;;;;;;1.92;1.67;;;;;;;6.57;96.73;97147.50;5016610;28;20029;-84
2024/02/22 02:46:34;;;;;;;1.80;1.65;;;;;;;6.47;96.37;97136.88;5030305;28;20408;-84
2024/02/22 02:48:59;;;;;;;1.63;1.48;;;;;;;6.47;97.04;97139.53;5034063;28;20033;-85
2024/02/22 02:51:24;;;;;;;1.40;1.30;;;;;;;6.54;96.78;97143.50;5017763;28;20507;-84
2024/02/22 02:53:50;;;;;;;1.73;1.63;;;;;;;6.54;97.11;97138.22;5009002;28;20034;-84
2024/02/22 02:56:15;;;;;;;1.63;1.17;;;;;;;6.53;96.64;97133.19;5029940;28;20033;-84
2024/02/22 02:58:40;;;;;;;1.38;1.27;;;;;;;6.40;97.58;97120.47;5033577;28;20039;-84
2024/02/22 03:01:07;;;;;;;2.13;1.67;;;;;;;6.39;97.11;97108.25;5031024;28;20094;-84
2024/02/22 03:03:32;;;;;;;1.88;1.73;;;;;;;6.37;97.27;97120.97;5016356;28;20049;-84
2024/02/22 03:05:58;;;;;;;1.98;1.58;;;;;;;6.46;97.98;97114.09;5014818;28;20037;-84
2024/02/22 03:08:23;;;;;;;2.15;1.50;;;;;;;6.34;97.73;97102.94;5017137;28;20056;-83
2024/02/22 03:10:49;;;;;;;1.45;1.35;;;;;;;6.32;97.26;97078.56;5013201;28;20064;-84
2024/02/22 03:13:14;;;;;;;1.65;1.55;;;;;;;6.32;97.59;97089.16;5014317;28;20084;-84
2024/02/22 03:15:39;;;;;;;3.05;1.40;;;;;;;6.30;97.68;97072.75;5033813;28;20029;-85
2024/02/22 03:18:08;;;;;;;1.70;1.30;;;;;;;6.50;97.66;97118.59;5015303;28;20033;-84
2024/02/22 03:20:34;;;;;;;1.77;1.30;;;;;;;6.39;97.83;97068.50;5017211;28;20483;-84
2024/02/22 03:23:00;;;;;;;1.63;1.52;;;;;;;6.39;97.79;97065.84;5030320;28;20631;-83
2024/02/22 03:25:27;;;;;;;1.02;1.02;;;;;;;6.50;97.79;97080.69;5030883;28;20053;-84
2024/02/22 03:27:53;;;;;;;2.05;1.30;;;;;;;6.43;98.26;97082.81;5011176;28;20052;-83
2024/02/22 03:30:18;;;;;;;2.55;1.65;;;;;;;6.48;97.24;97074.88;4991671;28;20041;-83
2024/02/22 03:32:44;;;;;;;2.13;1.35;;;;;;;6.37;97.55;97054.72;5031620;28;20042;-84
2024/02/22 03:35:12;;;;;;;2.35;1.83;;;;;;;6.44;97.64;97065.88;5028500;28;20033;-84
2024/02/22 03:37:38;;;;;;;2.10;1.60;;;;;;;6.43;97.51;97061.63;5007747;28;20021;-84
2024/02/22 03:40:05;;;;;;;1.73;1.40;;;;;;;6.50;97.98;97075.41;4993295;28;20048;-83
2024/02/22 03:42:32;;;;;;;1.45;1.23;;;;;;;6.17;97.91;97022.94;5012026;28;20021;-84
2024/02/22 03:44:57;;;;;;;1.67;1.33;;;;;;;6.41;98.03;97053.94;5026035;28;20167;-84
2024/02/22 03:47:22;;;;;;;1.63;1.50;;;;;;;6.39;98.32;97052.59;4997592;28;20113;-84
2024/02/22 03:49:48;;;;;;;1.40;1.30;;;;;;;6.56;98.27;97064.53;5016106;28;20167;-84
2024/02/22 03:52:13;;;;;;;2.13;1.65;;;;;;;6.57;98.36;97065.34;5027474;28;20026;-84
2024/02/22 03:54:39;;;;;;;1.63;1.52;;;;;;;6.62;97.58;97036.16;5034893;28;20030;-85
2024/02/22 03:57:05;;;;;;;1.40;1.30;;;;;;;6.58;97.72;97043.84;5012784;28;20512;-84
2024/02/22 03:59:30;;;;;;;3.55;1.58;;;;;;;6.56;97.50;97040.69;5031014;28;20033;-85
2024/02/22 04:01:56;;;;;;;2.90;1.45;;;;;;;6.55;98.45;97048.91;5027803;28;20026;-85
2024/02/22 04:04:21;;;;;;;1.50;1.40;;;;;;;6.29;98.19;97011.00;5013230;28;20056;-84
2024/02/22 04:06:47;;;;;;;2.75;1.10;;;;;;;6.02;98.58;96981.38;5030902;28;20041;-85
2024/02/22 04:09:14;;;;;;;2.20;1.10;;;;;;;6.51;99.02;97029.31;5016952;28;20037;-84
2024/02/22 04:11:40;;;;;;;1.92;1.40;;;;;;;6.55;99.27;97035.66;5031077;28;20390;-84
2024/02/22 04:14:05;;;;;;;1.20;1.02;;;;;;;6.56;98.27;97024.78;5007220;28;20041;-84
2024/02/22 04:16:30;;;;;;;1.17;0.90;;;;;;;6.50;98.70;97022.41;5020397;28;20033;-84
2024/02/22 04:18:56;;;;;;;2.72;1.13;;;;;;;6.51;99.54;97021.34;5027744;28;20033;-85
2024/02/22 04:21:21;;;;;;;0.90;0.90;;;;;;;6.40;99.84;97003.88;5008897;28;20490;-84
2024/02/22 04:23:46;;;;;;;1.00;0.88;;;;;;;6.54;98.97;97016.31;5007300;28;20025;-84
2024/02/22 04:26:12;;;;;;;1.30;1.20;;;;;;;6.56;98.36;96997.47;5009786;28;20076;-84
2024/02/22 04:28:37;;;;;;;1.17;1.15;;;;;;;6.62;98.19;97014.94;5026968;28;20129;-83
2024/02/22 04:31:04;;;;;;;1.60;1.10;;;;;;;6.58;98.29;97019.19;5007835;28;20036;-84
2024/02/22 04:33:29;;;;;;;2.10;1.27;;;;;;;6.33;98.25;96971.53;4990722;28;20484;-84
2024/02/22 04:35:55;;;;;;;0.90;0.73;;;;;;;6.47;99.55;96999.88;5025777;28;20036;-85
2024/02/22 04:38:22;;;;;;;1.27;0.95;;;;;;;6.56;99.28;97003.56;5027142;28;20040;-84
2024/02/22 04:40:47;;;;;;;2.85;1.10;;;;;;;6.54;99.00;97004.91;5007452;28;20060;-83
2024/02/22 04:43:13;;;;;;;0.82;0.82;;;;;;;6.36;99.02;96992.19;5021167;28;21270;-84
2024/02/22 04:45:39;;;;;;;1.20;1.10;;;;;;;6.57;98.45;96997.22;5023401;28;20601;-84
2024/02/22 04:48:06;;;;;;;1.52;1.05;;;;;;;6.45;99.74;96999.34;5028606;28;20029;-84
2024/02/22 04:50:32;;;;;;;0.88;0.77;;;;;;;6.58;99.42;96992.69;5026189;28;20059;-84
2024/02/22 04:52:59;;;;;;;1.13;0.98;;;;;;;6.55;99.54;96990.59;5028535;28;20025;-85
2024/02/22 04:55:25;;;;;;;1.30;1.20;;;;;;;6.54;99.07;96986.34;5026920;28;20064;-85
2024/02/22 04:57:51;;;;;;;1.08;0.93;;;;;;;6.34;98.98;96944.78;5024646;28;20033;-84
2024/02/22 05:00:16;;;;;;;0.93;0.90;;;;;;;6.45;99.28;96961.44;5026289;28;20041;-85
2024/02/22 05:02:43;;;;;;;0.50;0.50;;;;;;;6.62;99.69;96975.19;5012277;28;20034;-84
2024/02/22 05:05:08;;;;;;;1.15;1.00;;;;;;;6.44;99.50;96938.69;5029706;28;20040;-85
2024/02/22 05:07:34;;;;;;;1.00;0.98;;;;;;;6.67;99.20;96965.38;5028675;28;20045;-84
2024/02/22 05:10:00;;;;;;;1.25;0.90;;;;;;;6.52;99.48;96954.03;5032644;28;20041;-85
2024/02/22 05:12:25;;;;;;;1.65;1.08;;;;;;;6.59;99.85;96963.28;5027937;28;20041;-85
2024/02/22 05:14:51;;;;;;;0.65;0.65;;;;;;;6.42;99.65;96938.16;5024470;28;20164;-85
2024/02/22 05:17:17;;;;;;;0.80;0.80;;;;;;;6.47;99.61;96938.91;5006180;28;20033;-84
2024/02/22 05:19:42;;;;;;;0.98;0.95;;;;;;;6.59;99.26;96954.53;5022479;28;20055;-84
2024/02/22 05:22:08;;;;;;;0.73;0.73;;;;;;;6.60;99.09;96948.16;5024091;28;20037;-85
2024/02/22 05:24:33;;;;;;;1.15;0.57;;;;;;;6.56;100.00;96936.50;5029173;28;20583;-86
2024/02/22 05:26:59;;;;;;;1.10;0.98;;;;;;;6.43;99.88;96927.28;5008171;28;20400;-86
2024/02/22 05:29:24;;;;;;;0.70;0.70;;;;;;;6.46;99.39;96934.69;5016223;28;20040;-86
2024/02/22 05:31:51;;;;;;;0.77;0.60;;;;;;;6.53;100.00;96939.72;5013302;28;20089;-86
2024/02/22 05:34:17;;;;;;;1.02;1.00;;;;;;;6.44;99.71;96909.53;5023483;28;20432;-85
2024/02/22 05:36:43;;;;;;;0.82;0.82;;;;;;;6.48;100.00;96907.91;5007026;28;20029;-85
2024/02/22 05:39:09;;;;;;;0.70;0.70;;;;;;;6.60;100.00;96927.75;4990043;28;20485;-84
2024/02/22 05:41:36;;;;;;;1.10;1.00;;;;;;;6.45;100.00;96905.81;5024720;28;20037;-86
2024/02/22 05:44:02;;;;;;;1.10;0.90;;;;;;;6.66;100.00;96918.72;5025962;28;20034;-85
2024/02/22 05:46:33;;;;;;;0.73;0.60;;;;;;;6.61;99.93;96924.06;5022946;28;20079;-85
2024/02/22 05:48:58;;;;;;;0.95;0.95;;;;;;;6.56;100.00;96917.97;5022786;28;20026;-85
2024/02/22 05:51:24;;;;;;;1.05;0.95;;;;;;;6.57;100.00;96927.50;5009456;28;20025;-84
2024/02/22 05:53:53;;;;;;;0.85;0.85;;;;;;;6.51;100.00;96894.16;5023565;28;20044;-85
2024/02/22 05:56:19;;;;;;;1.48;0.90;;;;;;;6.69;100.00;96917.38;5028408;28;20459;-84
2024/02/22 05:58:44;;;;;;;1.00;1.00;;;;;;;6.39;99.84;96864.50;5008771;28;20128;-84
2024/02/22 06:01:11;;;;;;;0.70;0.70;;;;;;;6.49;100.00;96915.59;5008423;28;20041;-83
2024/02/22 06:03:37;;;;;;;1.00;0.90;;;;;;;6.46;99.99;96865.00;5035159;28;20028;-84
2024/02/22 06:06:05;;;;;;;1.38;0.80;;;;;;;6.67;99.71;96899.13;5027450;28;20113;-86
2024/02/22 06:08:31;;;;;;;0.63;0.63;;;;;;;6.58;100.00;96902.56;5033018;28;20152;-85
2024/02/22 06:10:56;;;;;;;0.82;0.70;;;;;;;6.67;99.96;96912.38;5008225;28;20046;-85
2024/02/22 06:13:22;;;;;;;1.05;0.95;;;;;;;6.77;100.00;96912.31;5013870;28;20437;-85
2024/02/22 06:15:47;;;;;;;0.80;0.80;;;;;;;6.74;99.71;96910.22;5032628;28;20443;-85
2024/02/22 06:18:13;;;;;;;1.13;1.05;;;;;;;6.68;100.00;96899.91;5013264;28;20065;-84
2024/02/22 06:20:38;;;;;;;1.48;1.38;;;;;;;6.45;100.00;96876.66;5013056;28;20034;-84
2024/02/22 06:23:04;;;;;;;1.02;0.75;;;;;;;6.75;100.00;96901.19;5032116;28;20025;-84
2024/02/22 06:25:30;;;;;;;1.15;0.90;;;;;;;6.40;100.00;96858.16;5011800;28;20030;-84
2024/02/22 06:27:56;;;;;;;1.77;1.02;;;;;;;6.60;99.95;96871.28;5015572;28;20080;-85
2024/02/22 06:30:21;;;;;;;1.05;1.02;;;;;;;6.71;99.95;96909.97;5033200;28;20029;-84
2024/02/22 06:32:50;;;;;;;1.35;1.25;;;;;;;6.77;99.74;96898.28;5031695;28;20416;-84
2024/02/22 06:35:17;;;;;;;1.35;1.20;;;;;;;6.61;100.00;96902.06;5017052;28;20033;-84
2024/02/22 06:37:44;;;;;;;1.30;1.20;;;;;;;6.64;100.00;96896.22;5031062;28;20121;-84
2024/02/22 06:40:10;;;;;;;1.27;1.17;;;;;;;6.72;100.00;96890.34;5025087;28;20057;-85
2024/02/22 06:42:36;;;;;;;2.22;1.10;;;;;;;6.73;100.00;96889.25;5030586;28;20032;-85
2024/02/22 06:45:02;;;;;;;1.20;1.10;;;;;;;6.83;100.00;96886.59;5029498;28;20021;-83
2024/02/22 06:47:28;;;;;;;2.97;1.55;;;;;;;6.82;100.00;96885.78;5031045;28;20037;-84
2024/02/22 06:49:54;;;;;;;2.70;1.58;;;;;;;6.48;100.00;96841.69;5031452;28;20033;-85
2024/02/22 06:52:20;;;;;;;1.00;1.00;;;;;;;6.61;100.00;96860.44;5013330;28;20049;-85
2024/02/22 06:54:45;;;;;;;1.20;1.00;;;;;;;6.73;100.00;96876.81;5031666;28;20034;-85
2024/02/22 06:57:10;;;;;;;0.85;0.85;;;;;;;6.66;100.00;96865.69;5011800;28;20029;-85
2024/02/22 06:59:36;;;;;;;1.90;1.40;;;;;;;6.78;100.00;96873.34;5032860;28;20037;-85
2024/02/22 07:02:01;;;;;;;0.98;0.90;;;;;;;6.54;100.00;96827.34;5015846;28;20037;-84
2024/02/22 07:04:27;;;;;;;0.98;0.98;;;;;;;6.70;100.00;96861.47;5040802;28;20115;-85
2024/02/22 07:06:52;;;;;;;1.00;1.00;;;;;;;6.72;100.00;96864.63;5037831;28;20038;-85
2024/02/22 07:09:17;;;;;;;0.93;0.93;;;;;;;6.85;100.00;96876.50;5039128;28;20433;-85
2024/02/22 07:11:43;;;;;;;1.13;1.00;;;;;;;6.90;100.00;96873.03;5035408;28;20049;-85
2024/02/22 07:14:08;;;;;;;0.80;0.80;;;;;;;6.93;100.00;96870.63;5036273;28;20033;-84
2024/02/22 07:16:33;;;;;;;1.50;1.30;;;;;;;6.75;100.00;96828.81;5014307;28;20180;-85
2024/02/22 07:18:59;;;;;;;1.42;1.20;;;;;;;6.93;100.00;96865.31;5024813;28;20041;-85
2024/02/22 07:21:32;;;;;;;1.27;1.17;;;;;;;6.90;100.00;96859.78;5035868;28;20028;-85
2024/02/22 07:23:57;;;;;;;0.68;0.68;;;;;;;6.79;100.00;96837.84;5029767;28;20030;-85
2024/02/22 07:26:22;;;;;;;0.80;0.80;;;;;;;6.89;100.00;96851.03;5017907;28;20079;-85
2024/02/22 07:28:48;;;;;;;0.70;0.70;;;;;;;6.94;100.00;96851.00;5034911;28;20117;-85
2024/02/22 07:31:13;;;;;;;0.95;0.93;;;;;;;7.05;100.00;96851.75;5034936;28;20631;-83
2024/02/22 07:33:39;;;;;;;0.73;0.70;;;;;;;6.90;99.31;96836.72;5034187;28;20052;-85
2024/02/22 07:36:05;;;;;;;0.70;0.70;;;;;;;7.03;99.60;96852.03;5015161;28;20033;-85
2024/02/22 07:38:30;;;;;;;1.50;0.93;;;;;;;6.92;100.00;96839.88;5033922;28;20095;-84
2024/02/22 07:40:56;;;;;;;1.10;0.98;;;;;;;7.05;99.72;96860.50;5036224;28;20405;-85
2024/02/22 07:43:21;;;;;;;0.90;0.85;;;;;;;6.93;100.00;96841.44;5034769;28;20033;-85
2024/02/22 07:45:47;;;;;;;1.10;0.77;;;;;;;6.96;99.17;96848.06;5016429;28;20033;-85
2024/02/22 07:48:13;;;;;;;1.58;0.95;;;;;;;6.98;100.00;96830.03;5001910;28;20493;-85
2024/02/22 07:50:39;;;;;;;0.88;0.88;;;;;;;7.07;100.00;96845.09;5034425;28;20044;-84
2024/02/22 07:53:06;;;;;;;1.23;0.90;;;;;;;6.93;100.00;96814.94;5030868;28;20040;-84
2024/02/22 07:55:31;;;;;;;1.15;0.80;;;;;;;7.00;100.00;96836.63;5018295;28;20018;-85
2024/02/22 07:57:57;;;;;;;0.55;0.55;;;;;;;7.14;100.00;96829.63;5036138;28;20090;-84
2024/02/22 08:00:22;;;;;;;0.77;0.70;;;;;;;7.18;100.00;96840.50;5034436;28;20025;-85
2024/02/22 08:02:48;;;;;;;0.70;0.70;;;;;;;7.04;100.00;96828.91;5033141;28;20037;-84
2024/02/22 08:05:13;;;;;;;1.90;0.60;;;;;;;6.95;100.00;96818.09;4999782;28;20034;-85
2024/02/22 08:07:40;;;;;;;0.93;0.93;;;;;;;7.17;100.00;96826.44;5032850;28;20060;-85
2024/02/22 08:10:06;;;;;;;0.52;0.52;;;;;;;7.12;100.00;96831.00;4994418;28;20025;-84
2024/02/22 08:12:32;;;;;;;1.10;1.00;;;;;;;7.10;100.00;96847.19;5033202;28;20025;-85
2024/02/22 08:14:57;;;;;;;1.23;1.13;;;;;;;7.06;100.00;96824.13;5011557;28;20116;-85
2024/02/22 08:17:23;;;;;;;0.70;0.70;;;;;;;7.19;100.00;96834.91;5032164;28;20058;-85
2024/02/22 08:19:48;;;;;;;1.00;1.00;;;;;;;7.12;100.00;96821.16;5017914;28;20089;-85
2024/02/22 08:22:14;;;;;;;0.80;0.80;;;;;;;7.18;100.00;96821.94;5032394;28;20036;-85
2024/02/22 08:24:40;;;;;;;1.08;1.00;;;;;;;7.30;100.00;96836.44;5034077;28;20053;-84
2024/02/22 08:27:06;;;;;;;1.63;0.93;;;;;;;7.20;100.00;96820.59;5033919;28;20029;-85
2024/02/22 08:29:31;;;;;;;1.60;1.42;;;;;;;7.30;100.00;96828.47;5015612;28;20668;-85
2024/02/22 08:31:56;;;;;;;0.90;0.80;;;;;;;7.30;100.00;96825.81;5030601;28;20179;-85
2024/02/22 08:34:23;;;;;;;0.95;0.70;;;;;;;7.26;100.00;96803.56;5015089;28;20493;-84
2024/02/22 08:36:51;;;;;;;0.80;0.80;;;;;;;7.04;100.00;96762.63;5011514;28;20072;-85
2024/02/22 08:39:18;;;;;;;1.20;1.02;;;;;;;7.33;100.00;96782.81;5026947;28;21016;-85
2024/02/22 08:41:43;;;;;;;1.00;0.95;;;;;;;7.44;100.00;96783.53;4998562;28;20021;-85
2024/02/22 08:44:09;;;;;;;1.02;0.95;;;;;;;7.40;100.00;96754.09;5034246;28;20087;-85
2024/02/22 08:46:34;;;;;;;0.70;0.70;;;;;;;7.57;100.00;96778.38;5034901;28;20041;-85
2024/02/22 08:49:00;;;;;;;0.90;0.90;;;;;;;7.52;100.00;96765.13;5033430;28;20029;-85
2024/02/22 08:51:25;;;;;;;0.70;0.70;;;;;;;7.60;100.00;96778.88;5034277;28;20037;-85
2024/02/22 08:53:51;;;;;;;0.55;0.55;;;;;;;7.47;100.00;96751.91;5017126;28;20036;-83
2024/02/22 08:56:17;;;;;;;0.85;0.85;;;;;;;7.61;100.00;96767.19;5031454;28;20112;-84
2024/02/22 08:58:42;;;;;;;2.85;1.13;;;;;;;7.56;100.00;96755.53;5033256;28;20029;-85
2024/02/22 09:01:08;;;;;;;0.60;0.60;;;;;;;7.70;100.00;96768.94;5015263;28;20024;-84
2024/02/22 09:03:34;;;;;;;0.80;0.80;;;;;;;7.73;100.00;96776.38;5032178;28;20657;-85
2024/02/22 09:05:59;;;;;;;1.15;1.05;;;;;;;7.61;100.00;96754.69;5020547;28;20123;-84
2024/02/22 09:08:25;;;;;;;0.90;0.80;;;;;;;7.59;100.00;96770.13;5045517;28;20029;-84
2024/02/22 09:10:52;;;;;;;3.15;0.90;;;;;;;7.72;100.00;96779.28;5035206;28;20036;-85
2024/02/22 09:13:17;;;;;;;1.05;0.82;;;;;;;7.80;100.00;96781.34;5036091;28;20021;-84
2024/02/22 09:15:49;;;;;;;1.33;1.30;;;;;;;7.68;100.00;96767.66;5017161;28;20037;-84
2024/02/22 09:18:15;;;;;;;0.90;0.90;;;;;;;7.86;100.00;96766.94;5015335;28;20576;-84
2024/02/22 09:20:41;;;;;;;0.80;0.80;;;;;;;7.68;100.00;96751.72;5027053;28;20421;-85
2024/02/22 09:23:06;;;;;;;1.05;1.00;;;;;;;7.62;100.00;96748.34;5016478;28;20033;-84
2024/02/22 09:25:32;;;;;;;1.08;0.93;;;;;;;7.90;100.00;96762.63;5002719;28;20366;-85
2024/02/22 09:27:57;;;;;;;0.88;0.88;;;;;;;7.63;100.00;96726.00;5000063;28;20033;-85
2024/02/22 09:30:23;;;;;;;0.68;0.68;;;;;;;7.78;100.00;96740.97;5000681;28;20041;-83
2024/02/22 09:32:50;;;;;;;1.00;1.00;;;;;;;7.79;100.00;96755.84;5026091;28;20069;-85
2024/02/22 09:35:16;;;;;;;0.95;0.95;;;;;;;7.67;100.00;96734.19;5003479;28;20055;-84
2024/02/22 09:37:42;;;;;;;1.30;1.20;;;;;;;7.82;100.00;96742.78;5004815;28;20037;-85
2024/02/22 09:40:08;;;;;;;1.10;1.10;;;;;;;7.71;100.00;96732.59;5015056;28;20026;-84
2024/02/22 09:42:35;;;;;;;0.98;0.98;;;;;;;7.38;100.00;96673.19;5016282;28;20089;-84
2024/02/22 09:45:02;;;;;;;1.33;1.23;;;;;;;8.02;100.00;96747.88;5033663;28;20531;-84
2024/02/22 09:47:28;;;;;;;0.98;0.98;;;;;;;7.57;100.00;96688.13;5034906;28;20033;-83
2024/02/22 09:49:54;;;;;;;1.10;1.00;;;;;;;8.04;100.00;96744.94;5033699;28;20040;-84
2024/02/22 09:52:19;;;;;;;1.25;1.20;;;;;;;8.03;100.00;96728.22;5002721;28;20034;-85
2024/02/22 09:54:45;;;;;;;1.67;1.52;;;;;;;8.00;100.00;96734.09;5006085;28;20480;-85
2024/02/22 09:57:11;;;;;;;2.47;1.27;;;;;;;7.92;100.00;96716.13;5030764;28;20022;-85
2024/02/22 09:59:36;;;;;;;1.63;1.52;;;;;;;7.96;100.00;96705.72;5033722;28;20041;-84
2024/02/22 10:02:06;;;;;;;1.45;1.35;;;;;;;7.89;100.00;96698.09;5016601;28;20037;-85
2024/02/22 10:04:32;;;;;;;1.45;1.35;;;;;;;8.11;100.00;96714.31;5016950;28;20033;-85
2024/02/22 10:07:01;;;;;;;1.70;1.60;;;;;;;8.14;100.00;96718.28;5005841;28;20017;-85
2024/02/22 10:09:28;;;;;;;1.73;1.63;;;;;;;8.06;100.00;96697.66;5048428;28;20041;-84
2024/02/22 10:11:53;;;;;;;2.05;1.90;;;;;;;8.09;100.00;96691.75;5029247;28;20088;-85
2024/02/22 10:14:18;;;;;;;2.05;1.85;;;;;;;8.19;100.00;96707.59;5021490;28;20095;-85
2024/02/22 10:16:47;;;;;;;1.63;1.48;;;;;;;8.18;100.00;96680.22;5033731;28;20088;-84
2024/02/22 10:19:14;;;;;;;2.38;1.60;;;;;;;8.31;100.00;96700.00;5016212;28;20311;-84
2024/02/22 10:21:40;;;;;;;1.92;1.33;;;;;;;8.22;100.00;96677.75;5034247;28;20048;-84
2024/02/22 10:24:08;;;;;;;1.85;1.67;;;;;;;8.43;100.00;96695.03;5001790;28;20112;-84
2024/02/22 10:26:34;;;;;;;2.60;1.52;;;;;;;8.21;100.00;96650.41;5032978;28;20079;-84
2024/02/22 10:29:09;;;;;;;1.67;1.58;;;;;;;8.41;100.00;96680.47;5027770;28;20038;-85
2024/02/22 10:31:47;;;;;;;1.55;1.45;;;;;;;8.35;100.00;96681.59;5026623;28;20033;-85
2024/02/22 10:34:14;;;;;;;2.13;1.83;;;;;;;8.42;99.96;96676.72;5033494;28;20032;-85
2024/02/22 10:36:42;;;;;;;2.17;1.70;;;;;;;8.28;100.00;96663.34;5038759;28;20033;-84
2024/02/22 10:39:13;;;;;;;1.33;1.23;;;;;;;8.17;100.00;96644.09;5018837;28;20029;-84
2024/02/22 10:41:39;;;;;;;3.08;1.42;;;;;;;8.19;100.00;96647.25;5036762;28;20048;-84
2024/02/22 10:44:05;;;;;;;1.67;1.45;;;;;;;8.05;100.00;96634.97;5036778;28;20468;-85
2024/02/22 10:46:38;;;;;;;2.97;1.40;;;;;;;8.20;100.00;96640.06;5018484;28;20029;-84
2024/02/22 10:49:10;;;;;;;1.45;1.30;;;;;;;8.45;99.37;96639.75;5020058;28;20026;-84
2024/02/22 10:51:38;;;;;;;1.60;1.50;;;;;;;8.48;98.58;96633.03;5004068;28;20033;-84
2024/02/22 10:54:09;;;;;;;1.45;1.35;;;;;;;8.37;99.09;96620.97;5035019;28;20100;-84
2024/02/22 10:56:38;;;;;;;1.60;1.50;;;;;;;8.44;98.49;96611.56;5036153;28;20051;-84
2024/02/22 10:59:07;;;;;;;1.05;0.95;;;;;;;8.35;99.10;96604.53;5005314;28;20041;-84
2024/02/22 11:01:33;;;;;;;1.40;1.30;;;;;;;8.35;100.00;96602.66;5033764;28;20021;-84
2024/02/22 11:04:01;;;;;;;1.33;1.10;;;;;;;8.56;99.49;96587.97;5033937;28;20037;-84
2024/02/22 11:06:26;;;;;;;0.95;0.95;;;;;;;8.53;99.21;96583.25;5034989;28;20025;-84
2024/02/22 11:08:55;;;;;;;1.00;1.00;;;;;;;8.49;98.75;96570.84;5032094;28;20037;-84
2024/02/22 11:11:29;;;;;;;0.80;0.80;;;;;;;8.46;99.40;96558.09;5030390;28;20042;-84
2024/02/22 11:14:02;;;;;;;0.98;0.90;;;;;;;8.40;98.84;96549.44;5016861;28;20092;-84
2024/02/22 11:16:38;;;;;;;0.80;0.80;;;;;;;8.34;100.00;96561.25;5011180;28;20034;-84
2024/02/22 11:19:13;;;;;;;;;;;;;;;8.40;100.00;96556.63;5037060;28;20063;-85
2024/02/22 11:21:42;;;;;;;0.60;0.60;;;;;;;8.55;99.81;96559.03;5034859;28;19951;-84
2024/02/22 11:24:09;;;;;;;0.50;0.50;;;;;;;8.59;99.17;96557.38;5035408;28;20033;-84
2024/02/22 11:26:36;;;;;;;1.05;0.70;;;;;;;8.55;98.65;96553.72;5041913;28;20100;-84
2024/02/22 11:29:01;;;;;;;0.50;0.50;;;;;;;8.60;99.19;96543.78;5039471;28;20030;-84
2024/02/22 11:31:27;;;;;;;0.60;0.60;;;;;;;8.54;98.74;96533.53;5035911;28;20078;-84
2024/02/22 11:33:57;;;;;;;0.50;0.50;;;;;;;8.55;99.47;96537.75;5020341;28;20086;-84